Manchester, MI (48158)

11:12 PM EDT on September 15, 2014 (GMT -0400)
Chuck's House | Change Station
CLOSE
Current Station
Personal Weather Station
Location: Manchester, MI
Elevation: 899 ft
Nearby Weather Stations

Elev 899 ft 42.15 °N, 84.03 °W | Updated 2 seconds ago

Overcast
Overcast
54.1 °F
Feels Like 54.1 °F
N
0.0
Wind Variable Wind from NW
Gusts 1.0 mph

Today
High -- | Low -- °F
--% Chance of Precip.
Yesterday
High -- | Low -- °F
Precip. -- in
7:16 AM 7:45 PM
Waning Gibbous, 50% visible
Pressure 30.09 in
Visibility 10.0 miles
Clouds Mostly Cloudy 5000 ft
Mostly Cloudy 6000 ft
Dew Point 54 °F
Humidity 98%
Rainfall 0.01 in
Snow Depth Not available.
UV 0 out of 12
Pollen 2.60 out of 12
Ozone Good
PM2.5 Good
Flu Activity Not available.
METAR KARB 160253Z AUTO 24004KT 10SM BKN050 BKN060 11/09 A3009 RMK AO2 SLP190 60000 T01110089 51003

More Conditions Fewer Conditions

Pressure 30.09 in
Visibility 10.0 miles
Clouds Mostly Cloudy 5000 ft
Mostly Cloudy 6000 ft
Dew Point 54 °F
Humidity 98%
Rainfall 0.01 in
Snow Depth Not available.
UV 0 out of 12
Pollen 2.60 out of 12
Ozone Good
PM2.5 Good
Flu Activity Not available.
METAR KARB 160253Z AUTO 24004KT 10SM BKN050 BKN060 11/09 A3009 RMK AO2 SLP190 60000 T01110089 51003

More Conditions Fewer Conditions

10-Day Weather Forecast

Almanac

Astronomy

Sep. 15, 2014 Rise Set
Actual Time 7:16 AM EDT 7:45 PM EDT
Civil Twilight 6:47 AM EDT 8:13 PM EDT
Nautical Twilight 6:14 AM EDT 8:46 PM EDT
Astronomical Twilight 5:40 AM EDT 9:20 PM EDT
Moon No Moon Rise 2:21 PM EDT (9/15)
Length of Visible Light 13h 25m
Length of Day
12h 29m
Tomorrow will be 2m 49s shorter.
Waning Gibbous, 50% of the Moon is Illuminated
Today
Waning Gibbous
Sep 24
New
Oct 1
First Quarter
Oct 8
Full
Oct 15
Last Quarter

Today's Extremes

State Highs State Lows

Community

WunderPhotos

Upload Photos

1,753,694 photos uploaded!

Nearby

Air Quality

  Air Quality AQ Index Pollutant
Yesterday Good
PM2.5
Yesterday Good
OZONE
Current Good
PM2.5
Current Good
OZONE
Monday Good
OZONE
Monday Good
PM2.5
Tuesday Good
OZONE
Tuesday Good
PM2.5
Wednesday Good
OZONE
Wednesday Good
PM2.5
Thursday Good
OZONE
Thursday Good
PM2.5
Friday Good
OZONE
Friday Good
PM2.5
Saturday Good
OZONE
Saturday Good
PM2.5

Snow Depth

Station Depth Elevation
No new snow has been reported.

Earthquake Activity

City Distance Mag. Time & Date
No recent earthquake activity has been reported nearby.
Minimum magnitude displayed is 2.5.

Coastal Water Temperatures

Place Temperature
No Stations Reporting

Nearby Weather Stations